createdAt,value
2023-12-09T00:01:42.199Z,100681.66
2023-12-09T00:04:09.990Z,100683.31
2023-12-09T00:06:38.262Z,100682.47
2023-12-09T00:09:06.271Z,100680.56
2023-12-09T00:11:35.677Z,100679.78
2023-12-09T00:14:05.472Z,100683.03
2023-12-09T00:16:33.373Z,100677.56
2023-12-09T00:19:01.407Z,100680.03
2023-12-09T00:21:29.601Z,100678.66
2023-12-09T00:23:58.750Z,100681.69
2023-12-09T00:26:26.591Z,100685.75
2023-12-09T00:28:56.038Z,100686.31
2023-12-09T00:31:23.790Z,100693.66
2023-12-09T00:33:51.596Z,100684.94
2023-12-09T00:36:19.476Z,100689.31
2023-12-09T00:38:47.268Z,100689.03
2023-12-09T00:41:15.246Z,100684.97
2023-12-09T00:43:43.051Z,100684.69
2023-12-09T00:46:12.287Z,100698.31
2023-12-09T00:48:40.278Z,100693.13
2023-12-09T00:51:08.738Z,100683.09
2023-12-09T00:53:36.629Z,100683.09
2023-12-09T00:56:04.603Z,100682.53
2023-12-09T00:58:32.375Z,100680.66
2023-12-09T01:01:00.250Z,100669.22
2023-12-09T01:03:29.583Z,100682.28
2023-12-09T01:05:57.488Z,100691.78
2023-12-09T01:08:26.926Z,100689.34
2023-12-09T01:10:54.949Z,100690.97
2023-12-09T01:13:22.744Z,100680.66
2023-12-09T01:15:50.513Z,100689.34
2023-12-09T01:18:18.385Z,100685.28
2023-12-09T01:20:47.555Z,100686.63
2023-12-09T01:23:15.305Z,100691.81
2023-12-09T01:25:43.080Z,100689.63
2023-12-09T01:28:10.856Z,100692.31
2023-12-09T01:30:38.707Z,100693.44
2023-12-09T01:33:06.825Z,100691.53
2023-12-09T01:35:34.824Z,100699.13
2023-12-09T01:38:04.482Z,100694.25
2023-12-09T01:40:32.291Z,100708.13
2023-12-09T01:43:00.052Z,100701.31
2023-12-09T01:45:30.246Z,100713.28
2023-12-09T01:47:58.131Z,100709.47
2023-12-09T01:50:26.074Z,100703.50
2023-12-09T01:52:54.168Z,100709.47
2023-12-09T01:55:23.554Z,100702.13
2023-12-09T01:57:52.564Z,100701.84
2023-12-09T02:00:22.299Z,100704.84
2023-12-09T02:02:50.633Z,100702.13
2023-12-09T02:05:18.891Z,100699.97
2023-12-09T02:07:46.717Z,100694.81
2023-12-09T02:10:14.537Z,100696.16
2023-12-09T02:12:51.700Z,100692.63
2023-12-09T02:15:26.340Z,100697.25
2023-12-09T02:17:58.484Z,100688.81
2023-12-09T02:20:27.175Z,100695.31
2023-12-09T02:23:05.909Z,100697.50
2023-12-09T02:25:33.771Z,100692.63
2023-12-09T02:28:04.853Z,100693.97
2023-12-09T02:30:41.341Z,100705.13
2023-12-09T02:33:12.453Z,100692.63
2023-12-09T02:35:45.178Z,100688.78
2023-12-09T02:38:16.871Z,100693.16
2023-12-09T02:40:45.327Z,100700.50
2023-12-09T02:43:13.537Z,100696.41
2023-12-09T02:45:41.842Z,100693.44
2023-12-09T02:48:09.899Z,100702.66
2023-12-09T02:50:38.026Z,100687.97
2023-12-09T02:53:06.025Z,100692.06
2023-12-09T02:55:35.110Z,100701.06
2023-12-09T02:58:02.862Z,100685.81
2023-12-09T03:00:30.661Z,100689.63
2023-12-09T03:02:58.596Z,100683.09
2023-12-09T03:05:26.572Z,100679.81
2023-12-09T03:07:54.348Z,100676.28
2023-12-09T03:10:22.091Z,100671.41
2023-12-09T03:12:51.154Z,100667.84
2023-12-09T03:15:19.043Z,100665.16
2023-12-09T03:17:47.027Z,100661.91
2023-12-09T03:20:14.914Z,100665.41
2023-12-09T03:22:42.644Z,100659.44
2023-12-09T03:25:10.743Z,100658.34
2023-12-09T03:27:38.532Z,100663.25
2023-12-09T03:30:09.627Z,100655.06
2023-12-09T03:32:40.307Z,100659.69
2023-12-09T03:35:11.032Z,100654.00
2023-12-09T03:37:38.847Z,100654.00
2023-12-09T03:40:07.873Z,100641.75
2023-12-09T03:42:35.701Z,100637.69
2023-12-09T03:45:03.592Z,100628.69
2023-12-09T03:47:32.724Z,100632.78
2023-12-09T03:50:00.519Z,100625.16
2023-12-09T03:52:28.928Z,100620.28
2023-12-09T03:54:56.950Z,100615.34
2023-12-09T03:57:24.930Z,100611.84
2023-12-09T03:59:53.004Z,100617.84
2023-12-09T04:02:21.056Z,100615.91
2023-12-09T04:04:50.201Z,100627.31
2023-12-09T04:07:18.291Z,100615.91
2023-12-09T04:09:46.011Z,100614.00
2023-12-09T04:12:13.822Z,100616.44
2023-12-09T04:14:42.431Z,100618.06
2023-12-09T04:17:10.135Z,100615.91
2023-12-09T04:19:38.123Z,100616.47
2023-12-09T04:22:07.789Z,100616.72
2023-12-09T04:24:35.661Z,100620.56
2023-12-09T04:27:03.508Z,100616.44
2023-12-09T04:29:31.432Z,100634.97
2023-12-09T04:32:00.166Z,100619.72
2023-12-09T04:34:28.112Z,100626.25
2023-12-09T04:36:56.016Z,100615.91
2023-12-09T04:39:25.090Z,100622.44
2023-12-09T04:41:52.888Z,100618.09
2023-12-09T04:44:20.673Z,100618.94
2023-12-09T04:46:48.426Z,100616.50
2023-12-09T04:49:16.341Z,100616.47
2023-12-09T04:51:44.254Z,100614.31
2023-12-09T04:54:12.098Z,100608.03
2023-12-09T04:56:41.172Z,100614.31
2023-12-09T04:59:09.901Z,100608.34
2023-12-09T05:01:37.662Z,100608.34
2023-12-09T05:04:05.973Z,100600.97
2023-12-09T05:06:33.773Z,100614.03
2023-12-09T05:09:01.638Z,100604.53
2023-12-09T05:11:29.366Z,100604.50
2023-12-09T05:13:58.496Z,100602.31
2023-12-09T05:16:26.980Z,100608.31
2023-12-09T05:18:55.199Z,100607.75
2023-12-09T05:21:23.309Z,100605.03
2023-12-09T05:24:03.939Z,100601.25
2023-12-09T05:26:31.731Z,100602.88
2023-12-09T05:29:00.901Z,100596.91
2023-12-09T05:31:28.632Z,100600.16
2023-12-09T05:33:56.644Z,100599.06
2023-12-09T05:36:24.464Z,100601.25
2023-12-09T05:38:52.210Z,100599.06
2023-12-09T05:41:19.929Z,100589.28
2023-12-09T05:43:47.661Z,100587.38
2023-12-09T05:46:20.674Z,100574.59
2023-12-09T05:48:49.018Z,100578.41
2023-12-09T05:51:17.077Z,100581.41
2023-12-09T05:53:44.955Z,100585.22
2023-12-09T05:56:13.730Z,100585.50
2023-12-09T05:58:41.660Z,100581.13
2023-12-09T06:01:10.256Z,100589.84
2023-12-09T06:03:39.721Z,100583.88
2023-12-09T06:06:06.946Z,100590.66
2023-12-09T06:08:34.996Z,100583.31
2023-12-09T06:11:02.887Z,100586.84
2023-12-09T06:13:31.253Z,100583.31
2023-12-09T06:15:58.968Z,100581.97
2023-12-09T06:18:27.213Z,100588.22
2023-12-09T06:20:56.384Z,100591.47
2023-12-09T06:23:24.148Z,100588.22
2023-12-09T06:25:51.907Z,100584.16
2023-12-09T06:28:19.645Z,100589.03
2023-12-09T06:30:47.645Z,100584.13
2023-12-09T06:33:16.917Z,100584.41
2023-12-09T06:35:47.751Z,100584.66
2023-12-09T06:38:16.829Z,100591.75
2023-12-09T06:40:44.888Z,100589.03
2023-12-09T06:43:12.611Z,100598.53
2023-12-09T06:45:43.433Z,100592.00
2023-12-09T06:48:11.408Z,100589.56
2023-12-09T06:50:39.199Z,100582.22
2023-12-09T06:53:07.759Z,100583.31
2023-12-09T06:55:36.912Z,100586.59
2023-12-09T06:58:04.667Z,100586.56
2023-12-09T07:00:32.494Z,100583.56
2023-12-09T07:03:01.124Z,100576.78
2023-12-09T07:05:29.143Z,100576.78
2023-12-09T07:07:56.919Z,100574.06
2023-12-09T07:10:24.647Z,100576.78
2023-12-09T07:12:53.838Z,100580.06
2023-12-09T07:15:21.693Z,100572.72
2023-12-09T07:17:49.640Z,100568.38
2023-12-09T07:20:17.519Z,100569.19
2023-12-09T07:22:45.485Z,100570.28
2023-12-09T07:25:13.371Z,100571.09
2023-12-09T07:27:41.148Z,100559.41
2023-12-09T07:30:11.179Z,100565.94
2023-12-09T07:32:39.050Z,100560.22
2023-12-09T07:35:07.572Z,100555.06
2023-12-09T07:37:35.319Z,100555.34
2023-12-09T07:40:05.841Z,100553.72
2023-12-09T07:42:33.730Z,100550.16
2023-12-09T07:45:01.532Z,100557.78
2023-12-09T07:47:31.081Z,100551.25
2023-12-09T07:49:58.852Z,100540.38
2023-12-09T07:52:27.036Z,100538.47
2023-12-09T07:54:55.241Z,100546.91
2023-12-09T07:57:23.100Z,100539.31
2023-12-09T07:59:50.950Z,100528.38
2023-12-09T08:02:18.762Z,100528.66
2023-12-09T08:04:47.850Z,100530.88
2023-12-09T08:07:15.589Z,100525.97
2023-12-09T08:09:43.464Z,100543.88
2023-12-09T08:12:12.927Z,100532.22
2023-12-09T08:14:40.770Z,100531.13
2023-12-09T08:17:08.490Z,100539.56
2023-12-09T08:19:36.360Z,100533.50
2023-12-09T08:22:05.859Z,100533.97
2023-12-09T08:24:33.662Z,100533.97
2023-12-09T08:27:01.464Z,100522.84
2023-12-09T08:29:29.957Z,100531.78
2023-12-09T08:31:58.703Z,100539.06
2023-12-09T08:34:26.672Z,100530.25
2023-12-09T08:36:54.539Z,100544.00
2023-12-09T08:39:24.462Z,100535.47
2023-12-09T08:41:52.262Z,100525.91
2023-12-09T08:44:20.041Z,100537.78
2023-12-09T08:46:47.780Z,100526.28
2023-12-09T08:49:15.651Z,100520.63
2023-12-09T08:51:46.876Z,100518.47
2023-12-09T08:54:15.582Z,100516.31
2023-12-09T08:56:44.691Z,100508.09
2023-12-09T08:59:12.613Z,100498.19
2023-12-09T09:01:40.821Z,100502.81
2023-12-09T09:04:08.732Z,100499.72
2023-12-09T09:06:36.559Z,100488.06
2023-12-09T09:09:05.566Z,100493.41
2023-12-09T09:11:33.330Z,100479.84
2023-12-09T09:14:02.427Z,100471.44
2023-12-09T09:16:30.187Z,100478.47
2023-12-09T09:18:58.390Z,100472.22
2023-12-09T09:21:26.300Z,100470.78
2023-12-09T09:23:54.093Z,100474.00
2023-12-09T09:26:22.937Z,100484.03
2023-12-09T09:28:50.817Z,100489.72
2023-12-09T09:31:20.007Z,100496.53
2023-12-09T09:33:47.916Z,100492.44
2023-12-09T09:36:18.093Z,100493.00
2023-12-09T09:38:46.022Z,100491.44
2023-12-09T09:41:19.500Z,100491.13
2023-12-09T09:43:49.678Z,100492.06
2023-12-09T09:46:21.152Z,100487.91
2023-12-09T09:48:54.223Z,100494.38
2023-12-09T09:51:27.850Z,100492.41
2023-12-09T09:54:07.457Z,100480.78
2023-12-09T09:56:36.433Z,100487.31
2023-12-09T09:59:08.000Z,100481.00
2023-12-09T10:01:38.421Z,100463.72
2023-12-09T10:04:07.911Z,100454.16
2023-12-09T10:06:37.349Z,100451.53
2023-12-09T10:09:05.737Z,100441.91
2023-12-09T10:11:34.002Z,100425.50
2023-12-09T10:14:01.791Z,100436.41
2023-12-09T10:16:29.524Z,100440.44
2023-12-09T10:18:58.698Z,100419.69
2023-12-09T10:21:27.915Z,100404.94
2023-12-09T10:23:55.648Z,100417.91
2023-12-09T10:26:23.847Z,100411.34
2023-12-09T10:28:52.014Z,100417.19
2023-12-09T10:31:20.026Z,100408.69
2023-12-09T10:33:48.068Z,100399.19
2023-12-09T10:36:16.251Z,100396.06
2023-12-09T10:38:45.556Z,100394.66
2023-12-09T10:41:14.777Z,100381.66
2023-12-09T10:43:42.965Z,100381.56
2023-12-09T10:46:10.930Z,100373.88
2023-12-09T10:48:38.944Z,100351.50
2023-12-09T10:51:06.975Z,100357.88
2023-12-09T10:53:34.738Z,100342.09
2023-12-09T10:56:04.551Z,100332.22
2023-12-09T10:58:35.110Z,100326.53
2023-12-09T11:01:05.164Z,100324.81
2023-12-09T11:03:34.445Z,100316.31
2023-12-09T11:06:07.088Z,100311.00
2023-12-09T11:08:37.924Z,100297.88
2023-12-09T11:11:09.288Z,100292.56
2023-12-09T11:13:37.575Z,100283.56
2023-12-09T11:16:13.305Z,100271.31
2023-12-09T11:18:50.259Z,100270.41
2023-12-09T11:21:19.039Z,100262.81
2023-12-09T11:23:50.105Z,100255.94
2023-12-09T11:26:20.868Z,100256.03
2023-12-09T11:29:05.530Z,100259.69
2023-12-09T11:31:35.194Z,100256.88
2023-12-09T11:34:03.526Z,100246.75
2023-12-09T11:36:36.766Z,100250.03
2023-12-09T11:39:07.777Z,100244.63
2023-12-09T11:41:37.146Z,100240.75
2023-12-09T11:44:05.867Z,100232.75
2023-12-09T11:46:34.431Z,100230.66
2023-12-09T11:49:04.138Z,100216.78
2023-12-09T11:51:33.642Z,100204.78
2023-12-09T11:54:02.916Z,100192.06
2023-12-09T11:56:30.785Z,100174.81
2023-12-09T11:59:00.623Z,100170.34
2023-12-09T12:01:30.431Z,100158.16
2023-12-09T12:03:58.334Z,100157.69
2023-12-09T12:06:26.348Z,100144.22
2023-12-09T12:08:55.738Z,100148.63
2023-12-09T12:11:25.601Z,100142.50
2023-12-09T12:13:54.727Z,100125.66
2023-12-09T12:16:24.389Z,100129.38
2023-12-09T12:18:52.265Z,100123.22
2023-12-09T12:21:20.819Z,100116.22
2023-12-09T12:23:52.792Z,100111.13
2023-12-09T12:26:20.851Z,100102.16
2023-12-09T12:28:49.904Z,100092.69
2023-12-09T12:31:17.913Z,100082.59
2023-12-09T12:33:47.284Z,100076.59
2023-12-09T12:36:15.458Z,100065.59
2023-12-09T12:38:43.357Z,100054.72
2023-12-09T12:41:11.189Z,100060.25
2023-12-09T12:43:39.048Z,100038.69
2023-12-09T12:46:08.026Z,100038.31
2023-12-09T12:48:35.981Z,100045.84
2023-12-09T12:51:05.309Z,100033.31
2023-12-09T12:53:33.306Z,100038.44
2023-12-09T12:56:01.208Z,100025.28
2023-12-09T12:58:30.588Z,100022.97
2023-12-09T13:00:58.515Z,100022.22
2023-12-09T13:03:26.776Z,100008.88
2023-12-09T13:05:54.722Z,100015.31
2023-12-09T13:08:23.899Z,99997.31
2023-12-09T13:10:51.724Z,99995.91
2023-12-09T13:13:19.559Z,100005.03
2023-12-09T13:15:47.533Z,100015.28
2023-12-09T13:18:15.713Z,99997.94
2023-12-09T13:20:46.603Z,100006.88
2023-12-09T13:23:14.631Z,99993.59
2023-12-09T13:25:44.124Z,99999.34
2023-12-09T13:28:12.086Z,99990.81
2023-12-09T13:30:40.228Z,99997.84
2023-12-09T13:33:08.181Z,99994.53
2023-12-09T13:35:36.136Z,99988.41
2023-12-09T13:38:05.117Z,99965.97
2023-12-09T13:40:33.060Z,99961.81
2023-12-09T13:43:02.252Z,99949.59
2023-12-09T13:45:36.888Z,99942.31
2023-12-09T13:48:05.941Z,99932.72
2023-12-09T13:50:35.627Z,99915.97
2023-12-09T13:53:04.476Z,99909.41
2023-12-09T13:55:32.291Z,99905.25
2023-12-09T13:58:00.128Z,99896.47
2023-12-09T14:00:29.371Z,99888.81
2023-12-09T14:02:58.301Z,99875.47
2023-12-09T14:05:26.399Z,99872.75
2023-12-09T14:07:55.295Z,99864.75
2023-12-09T14:10:23.655Z,99859.50
2023-12-09T14:12:51.563Z,99850.38
2023-12-09T14:15:19.489Z,99838.78
2023-12-09T14:17:49.113Z,99836.66
2023-12-09T14:20:17.426Z,99819.69
2023-12-09T14:22:46.662Z,99818.69
2023-12-09T14:25:15.051Z,99803.53
2023-12-09T14:27:43.077Z,99799.38
2023-12-09T14:30:12.548Z,99799.50
2023-12-09T14:32:44.914Z,99794.84
2023-12-09T14:35:15.369Z,99790.44
2023-12-09T14:37:43.939Z,99779.63
2023-12-09T14:40:12.430Z,99783.88
2023-12-09T14:42:40.272Z,99767.53
2023-12-09T14:45:10.554Z,99765.00
2023-12-09T14:47:39.166Z,99771.69
2023-12-09T14:50:10.024Z,99761.97
2023-12-09T14:52:39.384Z,99763.81
2023-12-09T14:55:08.208Z,99762.50
2023-12-09T14:57:36.119Z,99755.94
2023-12-09T15:00:04.719Z,99744.22
2023-12-09T15:02:32.573Z,99738.06
2023-12-09T15:05:00.463Z,99728.56
2023-12-09T15:07:28.365Z,99708.88
2023-12-09T15:09:57.650Z,99701.19
2023-12-09T15:12:27.933Z,99703.13
2023-12-09T15:14:57.905Z,99697.66
2023-12-09T15:17:26.350Z,99688.59
2023-12-09T15:19:54.398Z,99687.97
2023-12-09T15:22:22.765Z,99676.31
2023-12-09T15:24:50.609Z,99685.63
2023-12-09T15:27:19.995Z,99676.94
2023-12-09T15:29:47.920Z,99676.13
2023-12-09T15:32:15.865Z,99674.22
2023-12-09T15:34:43.818Z,99675.34
2023-12-09T15:37:12.073Z,99669.50
2023-12-09T15:39:40.518Z,99661.41
2023-12-09T15:42:08.814Z,99655.94
2023-12-09T15:44:38.082Z,99657.50
2023-12-09T15:47:07.549Z,99634.13
2023-12-09T15:49:35.648Z,99629.28
2023-12-09T15:52:03.681Z,99632.34
2023-12-09T15:54:31.566Z,99628.31
2023-12-09T15:57:03.281Z,99609.09
2023-12-09T15:59:31.554Z,99607.97
2023-12-09T16:02:00.843Z,99612.72
2023-12-09T16:04:28.812Z,99596.13
2023-12-09T16:06:56.758Z,99593.91
2023-12-09T16:09:24.640Z,99589.78
2023-12-09T16:11:52.504Z,99585.47
2023-12-09T16:14:20.389Z,99569.13
2023-12-09T16:16:48.218Z,99561.75
2023-12-09T16:19:17.465Z,99551.50
2023-12-09T16:21:45.457Z,99544.25
2023-12-09T16:24:13.349Z,99525.31
2023-12-09T16:26:41.846Z,99524.19
2023-12-09T16:29:10.476Z,99518.41
2023-12-09T16:31:39.740Z,99511.44
2023-12-09T16:34:07.916Z,99499.16
2023-12-09T16:36:37.200Z,99490.81
2023-12-09T16:39:05.225Z,99480.88
2023-12-09T16:41:33.165Z,99471.72
2023-12-09T16:44:01.118Z,99462.78
2023-12-09T16:46:29.682Z,99454.28
2023-12-09T16:48:57.805Z,99444.34
2023-12-09T16:51:25.754Z,99443.38
2023-12-09T16:53:54.968Z,99429.25
2023-12-09T16:56:22.878Z,99419.16
2023-12-09T16:58:50.708Z,99415.06
2023-12-09T17:01:18.635Z,99419.56
2023-12-09T17:03:47.342Z,99405.75
2023-12-09T17:06:15.296Z,99411.78
2023-12-09T17:08:43.208Z,99401.03
2023-12-09T17:11:12.418Z,99384.50
2023-12-09T17:13:40.244Z,99382.34
2023-12-09T17:16:08.950Z,99366.47
2023-12-09T17:18:36.970Z,99359.72
2023-12-09T17:21:04.951Z,99353.28
2023-12-09T17:23:33.451Z,99338.69
2023-12-09T17:26:01.358Z,99336.28
2023-12-09T17:28:30.870Z,99331.94
2023-12-09T17:30:58.720Z,99320.88
2023-12-09T17:33:26.614Z,99326.78
2023-12-09T17:35:54.658Z,99305.47
2023-12-09T17:38:22.757Z,99305.06
2023-12-09T17:40:50.620Z,99298.81
2023-12-09T17:43:19.793Z,99282.63
2023-12-09T17:45:51.299Z,99267.72
2023-12-09T17:48:20.698Z,99263.56
2023-12-09T17:50:48.648Z,99261.81
2023-12-09T17:53:20.503Z,99260.06
2023-12-09T17:55:48.857Z,99253.63
2023-12-09T17:58:17.103Z,99244.84
2023-12-09T18:00:45.211Z,99241.47
2023-12-09T18:03:14.625Z,99240.34
2023-12-09T18:05:42.879Z,99234.56
2023-12-09T18:08:11.108Z,99219.03
2023-12-09T18:10:38.945Z,99215.84
2023-12-09T18:13:06.746Z,99219.66
2023-12-09T18:15:34.595Z,99201.41
2023-12-09T18:18:02.479Z,99188.41
2023-12-09T18:20:31.697Z,99192.94
2023-12-09T18:23:00.601Z,99185.56
2023-12-09T18:25:30.818Z,99169.66
2023-12-09T18:27:58.818Z,99165.50
2023-12-09T18:30:27.003Z,99154.63
2023-12-09T18:32:56.853Z,99153.38
2023-12-09T18:35:24.849Z,99155.94
2023-12-09T18:37:54.219Z,99146.34
2023-12-09T18:40:23.926Z,99135.44
2023-12-09T18:42:52.514Z,99128.06
2023-12-09T18:45:20.725Z,99131.13
2023-12-09T18:47:48.721Z,99131.59
2023-12-09T18:50:16.608Z,99126.81
2023-12-09T18:52:44.446Z,99121.50
2023-12-09T18:55:13.615Z,99114.97
2023-12-09T18:57:41.779Z,99118.00
2023-12-09T19:00:10.368Z,99113.06
2023-12-09T19:02:38.299Z,99114.78
2023-12-09T19:05:06.724Z,99102.47
2023-12-09T19:07:34.901Z,99121.34
2023-12-09T19:10:06.151Z,99098.13
2023-12-09T19:12:35.956Z,99101.84
2023-12-09T19:15:03.917Z,99082.91
2023-12-09T19:17:32.410Z,99085.63
2023-12-09T19:20:00.643Z,99087.56
2023-12-09T19:22:28.791Z,99078.59
2023-12-09T19:24:56.779Z,99088.56
2023-12-09T19:27:24.876Z,99074.25
2023-12-09T19:29:54.081Z,99076.66
2023-12-09T19:32:21.991Z,99074.75
2023-12-09T19:34:49.982Z,99068.97
2023-12-09T19:37:17.902Z,99069.31
2023-12-09T19:39:45.818Z,99060.34
2023-12-09T19:42:13.757Z,99057.94
2023-12-09T19:44:41.630Z,99047.97
2023-12-09T19:47:11.359Z,99040.13
2023-12-09T19:49:39.356Z,99037.09
2023-12-09T19:52:07.262Z,99038.03
2023-12-09T19:54:35.186Z,99024.59
2023-12-09T19:57:03.078Z,99006.66
2023-12-09T19:59:32.110Z,99018.03
2023-12-09T20:01:59.907Z,98999.31
2023-12-09T20:04:29.255Z,99010.34
2023-12-09T20:06:57.419Z,99007.78
2023-12-09T20:09:25.597Z,98999.47
2023-12-09T20:11:53.506Z,99001.06
2023-12-09T20:14:21.369Z,98986.31
2023-12-09T20:16:50.370Z,98988.38
2023-12-09T20:19:18.372Z,98971.91
2023-12-09T20:21:50.061Z,98978.94
2023-12-09T20:24:17.944Z,98963.25
2023-12-09T20:26:45.857Z,98961.94
2023-12-09T20:29:13.904Z,98958.63
2023-12-09T20:31:43.421Z,98958.91
2023-12-09T20:34:12.168Z,98945.78
2023-12-09T20:36:40.392Z,98933.94
2023-12-09T20:39:11.951Z,98942.44
2023-12-09T20:41:39.972Z,98955.88
2023-12-09T20:44:07.828Z,98962.09
2023-12-09T20:46:35.723Z,98957.00
2023-12-09T20:49:03.630Z,98957.00
2023-12-09T20:51:31.638Z,98962.59
2023-12-09T20:53:59.460Z,98961.78
2023-12-09T20:56:28.997Z,98949.78
2023-12-09T20:58:56.954Z,98962.25
2023-12-09T21:01:24.853Z,98964.50
2023-12-09T21:03:52.792Z,98953.47
2023-12-09T21:06:20.766Z,98955.66
2023-12-09T21:08:48.653Z,98956.00
2023-12-09T21:11:22.099Z,98966.09
2023-12-09T21:13:51.386Z,98961.59
2023-12-09T21:16:19.611Z,98973.59
2023-12-09T21:18:47.522Z,98968.63
2023-12-09T21:21:15.443Z,98965.91
2023-12-09T21:23:43.732Z,98966.69
2023-12-09T21:26:11.556Z,98962.06
2023-12-09T21:28:39.423Z,98962.22
2023-12-09T21:31:12.634Z,98960.13
2023-12-09T21:33:40.522Z,98953.91
2023-12-09T21:36:12.854Z,98942.81
2023-12-09T21:38:40.907Z,98945.75
2023-12-09T21:41:09.197Z,98950.38
2023-12-09T21:43:38.071Z,98959.81
2023-12-09T21:46:06.445Z,98959.81
2023-12-09T21:48:35.741Z,98963.19
2023-12-09T21:51:06.104Z,98958.69
2023-12-09T21:53:33.968Z,98972.13
2023-12-09T21:56:01.852Z,98956.31
2023-12-09T21:58:29.796Z,98948.16
2023-12-09T22:00:57.633Z,98937.75
2023-12-09T22:03:25.579Z,98943.50
2023-12-09T22:05:54.881Z,98940.63
2023-12-09T22:08:22.753Z,98943.97
2023-12-09T22:10:50.561Z,98948.47
2023-12-09T22:13:18.378Z,98951.50
2023-12-09T22:15:47.301Z,98961.75
2023-12-09T22:18:15.388Z,98955.50
2023-12-09T22:20:43.279Z,98969.09
2023-12-09T22:23:12.530Z,98971.66
2023-12-09T22:25:40.401Z,98984.31
2023-12-09T22:28:08.281Z,98968.16
2023-12-09T22:30:36.110Z,98976.16
2023-12-09T22:33:04.118Z,98967.97
2023-12-09T22:35:33.073Z,98971.34
2023-12-09T22:38:02.459Z,98980.34
2023-12-09T22:40:31.757Z,98981.75
2023-12-09T22:42:59.877Z,98975.97
2023-12-09T22:45:27.747Z,98979.19
2023-12-09T22:47:55.789Z,98987.69
2023-12-09T22:50:23.817Z,98988.47
2023-12-09T22:52:51.660Z,98995.53
2023-12-09T22:55:19.514Z,99000.31
2023-12-09T22:57:49.068Z,99002.25
2023-12-09T23:00:28.257Z,99006.75
2023-12-09T23:02:56.290Z,99007.66
2023-12-09T23:05:24.941Z,99017.78
2023-12-09T23:07:52.752Z,99017.47
2023-12-09T23:10:20.621Z,99021.16
2023-12-09T23:12:50.054Z,99024.34
2023-12-09T23:15:18.100Z,99015.75
2023-12-09T23:17:45.960Z,99026.31
2023-12-09T23:20:13.859Z,99027.59
2023-12-09T23:22:41.680Z,99026.25
2023-12-09T23:25:09.969Z,99026.63
2023-12-09T23:27:37.807Z,99028.34
2023-12-09T23:30:09.193Z,99023.59
2023-12-09T23:32:37.131Z,99029.19
2023-12-09T23:35:05.521Z,99033.22
2023-12-09T23:37:33.892Z,99030.81
2023-12-09T23:40:01.736Z,99034.00
2023-12-09T23:42:29.799Z,99034.84
2023-12-09T23:44:57.765Z,99039.78
2023-12-09T23:47:26.960Z,99044.78
2023-12-09T23:49:54.861Z,99047.34
2023-12-09T23:52:23.123Z,99038.69
2023-12-09T23:54:51.042Z,99042.88
2023-12-09T23:57:18.939Z,99049.13
2023-12-09T23:59:46.777Z,99043.56
